RAAF Base Curtin
YCIN : now visible

Airfield :











YOU CAN JOIN US ON...

 
LOGIN :

Register | Disclaimer

   EN    FR    IT 

 









Legend :    VFR   Marginal VFR   IFR   Intensive IFR   Very Intensive IFR
Visi :
Ceiling :
>= 8 km
>= 3000ft
5 to 8 km
1000 to 3000 ft
1500m to 5 km
500 to 1000 ft
800 to 1500m
200 to 500 ft
< 800m
< 200 ft
Symbols :   Thunderstorms  Fog  Heavy snow  Heavy precipitations  Wind > 20 kt






- Airport Elevation : 300 ft


YCIN - RAAF Base Curtin

CURRENT METAR :
  • 161800Z AUTO 09005KT 9999 // SCT125 28/20 Q1004 RF00.0/000.0 DL-NW

EXPIRED METARs :
  • 161730Z AUTO 05005KT 9999 // OVC125 27/20 Q1004 RF00.0/000.0 DL-N/DL-NE/DL-NW
  • 161700Z AUTO 10007KT 9999 // SCT100 27/20 Q1004
  • 161630Z AUTO 08007KT 9999 VCTS SCT095 BKN115 27/20 Q1004 RETS
  • 161626Z AUTO 08007KT 9999 VCTS SCT097 BKN115 28/20 Q1005 RETS
  • 161600Z AUTO 08013KT 9999 TS SCT081 28/19 Q1005 RF00.0/000.0 TS
  • 161549Z AUTO 08014KT 9999 TS SCT079 29/20 Q1005 RF00.0/000.0 TS
  • 161530Z AUTO 12007KT 9999 VCTS SCT100 31/22 Q1005 RF00.0/000.0 VCTS-N/VCTS-NE/VCTS-E/VCTS-SE

TAF AMD TAF YCIN
Valid from the 16 at 14:00 until the 17 at 02:00 UTC


161205Z 1614/1702 31006KT CAVOK
FM162100 13005KT CAVOK
PROB30
TEMPO 1616/1619 VRB20G35KT 2000 TSRA SCT040 SCT080CB
YBBB FIR / Oceania



MET'MAP, your aeronautical weather chart ! - Copyright ORBIFLY December 2007 - Disclaimer

ORBIFLY MET'MAP TEAM :

Programming & Development : Alexandra Zaïnal
Concept & original design : Baudouin d'Aumeries
Assistance for programming : Marc-Olivier Méhu
Technical & hardware support : Manuel Goepfert

Contact : metmap@orbifly.com




SOURCES & CREDITS :

   NOAA       Earth
Advisory